createdAt,value
2018-12-10T00:01:49.994Z,2.47
2018-12-10T00:04:18.173Z,2.83
2018-12-10T00:06:46.449Z,2.30
2018-12-10T00:09:14.643Z,3.10
2018-12-10T00:11:42.978Z,3.87
2018-12-10T00:14:11.218Z,2.87
2018-12-10T00:16:39.410Z,2.90
2018-12-10T00:19:07.600Z,3.07
2018-12-10T00:21:35.788Z,2.53
2018-12-10T00:24:04.154Z,3.93
2018-12-10T00:26:32.368Z,3.07
2018-12-10T00:29:00.533Z,3.07
2018-12-10T00:31:28.758Z,2.60
2018-12-10T00:33:56.975Z,2.97
2018-12-10T00:36:25.128Z,2.73
2018-12-10T00:38:53.426Z,3.40
2018-12-10T00:41:21.702Z,3.43
2018-12-10T00:43:50.014Z,2.87
2018-12-10T00:46:18.270Z,3.27
2018-12-10T00:48:46.544Z,3.07
2018-12-10T00:51:14.742Z,3.60
2018-12-10T00:53:42.923Z,3.00
2018-12-10T00:56:11.154Z,3.37
2018-12-10T00:58:39.437Z,2.57
2018-12-10T01:01:07.622Z,2.80
2018-12-10T01:03:35.828Z,2.67
2018-12-10T01:06:04.194Z,3.23
2018-12-10T01:08:32.372Z,2.80
2018-12-10T01:11:00.566Z,2.67
2018-12-10T01:13:28.773Z,3.10
2018-12-10T01:15:56.975Z,3.27
2018-12-10T01:18:25.176Z,3.00
2018-12-10T01:20:53.442Z,2.50
2018-12-10T01:23:21.657Z,2.90
2018-12-10T01:25:49.878Z,2.93
2018-12-10T01:28:18.096Z,3.43
2018-12-10T01:30:46.331Z,2.63
2018-12-10T01:33:14.573Z,3.70
2018-12-10T01:35:42.753Z,2.70
2018-12-10T01:38:11.029Z,2.83
2018-12-10T01:40:39.242Z,2.93
2018-12-10T01:43:07.432Z,2.47
2018-12-10T01:45:35.630Z,2.50
2018-12-10T01:48:03.844Z,3.00
2018-12-10T01:50:32.158Z,2.90
2018-12-10T01:53:00.457Z,2.80
2018-12-10T01:55:28.637Z,2.90
2018-12-10T01:57:56.829Z,3.03
2018-12-10T02:00:26.144Z,3.00
2018-12-10T02:02:56.355Z,3.40
2018-12-10T02:05:24.637Z,3.17
2018-12-10T02:07:52.829Z,2.83
2018-12-10T02:10:20.987Z,2.60
2018-12-10T02:12:49.171Z,2.77
2018-12-10T02:15:17.476Z,2.43
2018-12-10T02:17:45.841Z,2.67
2018-12-10T02:20:14.115Z,2.70
2018-12-10T02:22:44.698Z,2.63
2018-12-10T02:25:12.890Z,2.80
2018-12-10T02:27:41.058Z,2.90
2018-12-10T02:30:09.384Z,3.17
2018-12-10T02:32:37.574Z,4.00
2018-12-10T02:35:05.943Z,3.47
2018-12-10T02:37:34.117Z,4.27
2018-12-10T02:40:02.370Z,3.97
2018-12-10T02:42:30.575Z,3.57
2018-12-10T02:44:58.729Z,3.90
2018-12-10T02:47:26.911Z,2.80
2018-12-10T02:49:55.053Z,3.07
2018-12-10T02:52:23.238Z,2.57
2018-12-10T02:54:51.428Z,3.17
2018-12-10T02:57:19.585Z,2.47
2018-12-10T02:59:47.820Z,2.20
2018-12-10T03:02:16.001Z,2.67
2018-12-10T03:04:44.276Z,2.10
2018-12-10T03:07:12.489Z,2.27
2018-12-10T03:09:40.664Z,2.30
2018-12-10T03:12:08.953Z,2.07
2018-12-10T03:14:37.139Z,1.97
2018-12-10T03:17:05.381Z,1.90
2018-12-10T03:19:33.529Z,2.73
2018-12-10T03:22:01.743Z,2.23
2018-12-10T03:24:29.930Z,2.13
2018-12-10T03:26:58.954Z,1.90
2018-12-10T03:29:27.279Z,2.77
2018-12-10T03:31:55.803Z,2.50
2018-12-10T03:34:24.122Z,3.10
2018-12-10T03:36:52.294Z,2.40
2018-12-10T03:39:20.585Z,1.97
2018-12-10T03:41:48.943Z,1.93
2018-12-10T03:44:17.121Z,1.83
2018-12-10T03:46:45.278Z,2.33
2018-12-10T03:49:13.486Z,2.63
2018-12-10T03:51:41.668Z,1.97
2018-12-10T03:54:09.979Z,1.97
2018-12-10T03:56:38.284Z,2.20
2018-12-10T03:59:06.481Z,1.80
2018-12-10T04:01:34.650Z,1.80
2018-12-10T04:04:02.850Z,1.90
2018-12-10T04:06:31.050Z,1.87
2018-12-10T04:08:59.213Z,1.97
2018-12-10T04:11:27.456Z,2.03
2018-12-10T04:13:55.645Z,2.10
2018-12-10T04:16:23.950Z,1.77
2018-12-10T04:18:52.175Z,2.00
2018-12-10T04:21:20.429Z,2.20
2018-12-10T04:23:48.850Z,1.50
2018-12-10T04:26:17.016Z,1.53
2018-12-10T04:28:45.169Z,1.53
2018-12-10T04:31:13.434Z,2.03
2018-12-10T04:33:41.688Z,1.53
2018-12-10T04:36:09.874Z,1.90
2018-12-10T04:38:38.092Z,2.47
2018-12-10T04:41:06.306Z,2.93
2018-12-10T04:43:34.474Z,3.50
2018-12-10T04:46:02.793Z,3.17
2018-12-10T04:48:30.947Z,1.77
2018-12-10T04:50:59.167Z,2.50
2018-12-10T04:53:27.399Z,2.43
2018-12-10T04:55:55.738Z,2.20
2018-12-10T04:58:23.956Z,1.97
2018-12-10T05:00:52.167Z,2.50
2018-12-10T05:03:21.753Z,2.17
2018-12-10T05:05:50.034Z,2.07
2018-12-10T05:08:18.334Z,2.13
2018-12-10T05:10:46.614Z,2.20
2018-12-10T05:13:14.796Z,2.53
2018-12-10T05:15:42.953Z,2.50
2018-12-10T05:18:11.122Z,2.47
2018-12-10T05:20:39.282Z,3.00
2018-12-10T05:23:08.568Z,2.67
2018-12-10T05:25:36.805Z,2.40
2018-12-10T05:28:05.190Z,3.17
2018-12-10T05:30:33.469Z,2.80
2018-12-10T05:33:01.759Z,3.23
2018-12-10T05:35:30.059Z,3.13
2018-12-10T05:37:58.355Z,3.43
2018-12-10T05:40:26.577Z,2.77
2018-12-10T05:42:54.963Z,2.70
2018-12-10T05:45:23.231Z,2.90
2018-12-10T05:47:51.458Z,2.83
2018-12-10T05:50:19.874Z,2.73
2018-12-10T05:52:48.073Z,2.67
2018-12-10T05:55:16.324Z,5.63
2018-12-10T05:57:44.754Z,3.80
2018-12-10T06:00:13.126Z,2.70
2018-12-10T06:02:41.398Z,2.67
2018-12-10T06:05:09.628Z,2.90
2018-12-10T06:07:37.889Z,2.47
2018-12-10T06:10:06.648Z,2.50
2018-12-10T06:12:35.082Z,4.03
2018-12-10T06:15:03.666Z,7.20
2018-12-10T06:17:31.915Z,3.73
2018-12-10T06:20:00.296Z,2.93
2018-12-10T06:22:28.670Z,3.73
2018-12-10T06:24:56.956Z,5.43
2018-12-10T06:27:25.188Z,4.80
2018-12-10T06:29:53.522Z,4.73
2018-12-10T06:32:21.778Z,5.50
2018-12-10T06:34:50.096Z,5.33
2018-12-10T06:37:18.422Z,10.10
2018-12-10T06:39:46.666Z,5.73
2018-12-10T06:42:14.935Z,6.10
2018-12-10T06:44:43.216Z,5.47
2018-12-10T06:47:11.411Z,5.93
2018-12-10T06:49:39.791Z,5.93
2018-12-10T06:52:08.353Z,6.10
2018-12-10T06:54:36.592Z,6.50
2018-12-10T06:57:05.041Z,5.83
2018-12-10T06:59:33.347Z,7.27
2018-12-10T07:02:01.649Z,6.60
2018-12-10T07:04:29.899Z,7.37
2018-12-10T07:06:58.404Z,7.17
2018-12-10T07:09:26.963Z,7.60
2018-12-10T07:11:55.222Z,9.60
2018-12-10T07:14:23.461Z,9.13
2018-12-10T07:16:51.749Z,9.63
2018-12-10T07:19:20.027Z,9.50
2018-12-10T07:21:48.298Z,8.47
2018-12-10T07:24:16.551Z,8.87
2018-12-10T07:26:44.776Z,7.87
2018-12-10T07:29:13.031Z,6.87
2018-12-10T07:31:41.248Z,7.43
2018-12-10T07:34:09.626Z,6.60
2018-12-10T07:36:37.854Z,5.97
2018-12-10T07:39:07.096Z,7.00
2018-12-10T07:41:35.374Z,6.03
2018-12-10T07:44:03.815Z,6.30
2018-12-10T07:46:32.087Z,5.17
2018-12-10T07:49:00.415Z,4.97
2018-12-10T07:51:28.772Z,4.57
2018-12-10T07:53:56.996Z,4.67
2018-12-10T07:56:28.995Z,10.57
2018-12-10T07:58:55.593Z,5.60
2018-12-10T08:01:23.910Z,5.43
2018-12-10T08:03:52.364Z,4.97
2018-12-10T08:06:26.998Z,4.50
2018-12-10T08:08:55.165Z,4.53
2018-12-10T08:11:23.355Z,4.80
2018-12-10T08:13:51.548Z,4.37
2018-12-10T08:16:19.727Z,3.40
2018-12-10T08:18:47.886Z,3.10
2018-12-10T08:21:16.156Z,3.07
2018-12-10T08:23:44.400Z,3.00
2018-12-10T08:26:12.548Z,3.67
2018-12-10T08:28:40.818Z,3.17
2018-12-10T08:31:09.073Z,3.33
2018-12-10T08:33:37.296Z,3.23
2018-12-10T08:36:05.467Z,4.00
2018-12-10T08:38:33.633Z,3.87
2018-12-10T08:41:01.873Z,4.03
2018-12-10T08:43:30.047Z,4.43
2018-12-10T08:45:58.351Z,4.47
2018-12-10T08:48:26.514Z,4.03
2018-12-10T08:50:54.656Z,3.93
2018-12-10T08:53:22.902Z,4.03
2018-12-10T08:55:51.112Z,4.63
2018-12-10T08:58:19.382Z,4.57
2018-12-10T09:00:47.634Z,4.60
2018-12-10T09:03:15.891Z,3.60
2018-12-10T09:05:44.219Z,4.63
2018-12-10T09:08:12.484Z,3.70
2018-12-10T09:10:40.688Z,4.53
2018-12-10T09:13:08.917Z,5.20
2018-12-10T09:15:37.304Z,10.87
2018-12-10T09:18:05.576Z,5.77
2018-12-10T09:20:33.837Z,5.43
2018-12-10T09:23:02.071Z,5.80
2018-12-10T09:25:30.355Z,6.23
2018-12-10T09:27:58.604Z,5.37
2018-12-10T09:30:26.875Z,5.97
2018-12-10T09:32:55.143Z,6.93
2018-12-10T09:35:23.503Z,6.53
2018-12-10T09:37:51.729Z,10.20
2018-12-10T09:40:20.061Z,6.80
2018-12-10T09:42:48.416Z,4.53
2018-12-10T09:45:16.717Z,5.13
2018-12-10T09:47:44.987Z,4.60
2018-12-10T09:50:13.197Z,5.00
2018-12-10T09:52:41.458Z,5.23
2018-12-10T09:55:09.764Z,5.50
2018-12-10T09:57:38.043Z,8.37
2018-12-10T10:00:07.533Z,7.10
2018-12-10T10:02:35.780Z,8.23
2018-12-10T10:05:04.346Z,8.70
2018-12-10T10:07:32.619Z,9.03
2018-12-10T10:10:00.845Z,8.03
2018-12-10T10:12:29.146Z,8.73
2018-12-10T10:14:57.371Z,8.73
2018-12-10T10:17:25.574Z,8.40
2018-12-10T10:19:53.852Z,9.37
2018-12-10T10:22:22.071Z,9.33
2018-12-10T10:24:50.355Z,9.83
2018-12-10T10:27:18.566Z,10.43
2018-12-10T10:29:46.811Z,10.40
2018-12-10T10:32:15.187Z,10.70
2018-12-10T10:34:43.537Z,10.03
2018-12-10T10:37:11.823Z,9.87
2018-12-10T10:39:40.140Z,9.20
2018-12-10T10:42:08.392Z,6.00
2018-12-10T10:44:36.584Z,5.97
2018-12-10T10:47:05.029Z,5.63
2018-12-10T10:49:33.196Z,5.27
2018-12-10T10:52:01.414Z,3.43
2018-12-10T10:54:29.619Z,4.27
2018-12-10T10:56:57.933Z,3.80
2018-12-10T10:59:26.332Z,4.37
2018-12-10T11:01:57.440Z,3.60
2018-12-10T11:04:25.710Z,3.50
2018-12-10T11:06:54.048Z,3.97
2018-12-10T11:09:22.311Z,5.87
2018-12-10T11:11:50.655Z,5.90
2018-12-10T11:14:18.950Z,8.47
2018-12-10T11:16:47.214Z,8.60
2018-12-10T11:19:15.498Z,9.43
2018-12-10T11:21:43.851Z,9.10
2018-12-10T11:24:12.101Z,8.53
2018-12-10T11:26:40.484Z,7.47
2018-12-10T11:29:08.722Z,4.87
2018-12-10T11:31:37.008Z,3.07
2018-12-10T11:34:05.251Z,2.27
2018-12-10T11:36:33.519Z,2.90
2018-12-10T11:39:01.869Z,2.37
2018-12-10T11:41:30.188Z,2.60
2018-12-10T11:43:58.483Z,2.10
2018-12-10T11:46:26.802Z,2.60
2018-12-10T11:48:55.073Z,2.40
2018-12-10T11:51:23.317Z,2.07
2018-12-10T11:53:51.644Z,2.00
2018-12-10T11:56:19.911Z,1.43
2018-12-10T11:58:48.144Z,1.87
2018-12-10T12:01:16.368Z,3.03
2018-12-10T12:03:44.553Z,4.50
2018-12-10T12:06:12.784Z,5.50
2018-12-10T12:08:41.006Z,6.53
2018-12-10T12:11:09.264Z,9.70
2018-12-10T12:13:37.585Z,11.20
2018-12-10T12:16:05.904Z,12.70
2018-12-10T12:18:34.264Z,14.17
2018-12-10T12:21:02.596Z,15.67
2018-12-10T12:23:30.847Z,13.67
2018-12-10T12:25:59.118Z,11.07
2018-12-10T12:28:27.346Z,6.13
2018-12-10T12:30:55.688Z,5.40
2018-12-10T12:33:23.896Z,4.10
2018-12-10T12:35:52.120Z,3.00
2018-12-10T12:38:20.417Z,3.60
2018-12-10T12:40:48.668Z,3.57
2018-12-10T12:43:16.883Z,3.20
2018-12-10T12:45:45.351Z,4.37
2018-12-10T12:48:13.594Z,3.17
2018-12-10T12:50:41.779Z,2.63
2018-12-10T12:53:10.089Z,2.87
2018-12-10T12:55:38.293Z,2.20
2018-12-10T12:58:06.499Z,3.00
2018-12-10T13:00:41.888Z,3.00
2018-12-10T13:03:05.000Z,3.03
2018-12-10T13:05:33.222Z,2.63
2018-12-10T13:08:01.465Z,3.40
2018-12-10T13:10:29.704Z,3.43
2018-12-10T13:12:57.930Z,3.00
2018-12-10T13:15:26.212Z,3.20
2018-12-10T13:17:54.467Z,3.63
2018-12-10T13:20:22.678Z,3.20
2018-12-10T13:22:51.053Z,2.77
2018-12-10T13:25:19.373Z,3.27
2018-12-10T13:27:47.575Z,2.83
2018-12-10T13:30:15.971Z,3.77
2018-12-10T13:32:44.330Z,4.03
2018-12-10T13:35:12.538Z,3.80
2018-12-10T13:37:45.610Z,4.77
2018-12-10T13:40:11.000Z,5.47
2018-12-10T13:42:39.270Z,5.03
2018-12-10T13:45:07.599Z,5.33
2018-12-10T13:47:35.927Z,4.60
2018-12-10T13:50:04.455Z,3.40
2018-12-10T13:52:32.782Z,4.07
2018-12-10T13:55:00.986Z,4.07
2018-12-10T13:57:29.197Z,3.80
2018-12-10T13:59:58.427Z,4.30
2018-12-10T14:02:30.262Z,4.57
2018-12-10T14:05:01.740Z,4.57
2018-12-10T14:07:30.042Z,4.60
2018-12-10T14:09:58.333Z,4.70
2018-12-10T14:12:26.671Z,4.87
2018-12-10T14:14:54.990Z,5.30
2018-12-10T14:17:23.188Z,5.57
2018-12-10T14:19:51.390Z,5.80
2018-12-10T14:22:19.692Z,5.63
2018-12-10T14:24:48.039Z,5.33
2018-12-10T14:27:16.441Z,4.93
2018-12-10T14:29:44.748Z,5.20
2018-12-10T14:32:13.256Z,4.80
2018-12-10T14:34:41.540Z,5.27
2018-12-10T14:37:09.811Z,5.13
2018-12-10T14:39:38.052Z,5.20
2018-12-10T14:42:15.320Z,7.13
2018-12-10T14:44:43.517Z,10.27
2018-12-10T14:47:11.730Z,4.17
2018-12-10T14:49:39.931Z,5.03
2018-12-10T14:52:08.253Z,4.30
2018-12-10T14:54:36.582Z,4.10
2018-12-10T14:57:04.797Z,4.53
2018-12-10T14:59:32.943Z,4.10
2018-12-10T15:02:01.143Z,4.33
2018-12-10T15:04:29.317Z,3.77
2018-12-10T15:06:57.549Z,3.77
2018-12-10T15:09:25.771Z,8.03
2018-12-10T15:11:53.971Z,4.10
2018-12-10T15:14:22.140Z,3.73
2018-12-10T15:16:50.469Z,3.57
2018-12-10T15:19:18.664Z,2.80
2018-12-10T15:21:46.879Z,2.73
2018-12-10T15:24:15.024Z,3.13
2018-12-10T15:26:43.362Z,3.40
2018-12-10T15:29:11.608Z,2.97
2018-12-10T15:31:39.847Z,3.40
2018-12-10T15:34:08.155Z,3.43
2018-12-10T15:36:37.073Z,3.53
2018-12-10T15:39:06.633Z,3.60
2018-12-10T15:41:34.898Z,3.57
2018-12-10T15:44:03.148Z,3.13
2018-12-10T15:46:31.312Z,5.83
2018-12-10T15:48:59.501Z,3.17
2018-12-10T15:51:27.924Z,3.23
2018-12-10T15:53:56.143Z,2.93
2018-12-10T15:56:24.495Z,2.63
2018-12-10T15:58:52.921Z,3.03
2018-12-10T16:01:21.219Z,2.87
2018-12-10T16:03:49.644Z,3.47
2018-12-10T16:06:17.837Z,2.87
2018-12-10T16:08:46.059Z,2.90
2018-12-10T16:11:14.269Z,3.60
2018-12-10T16:13:42.460Z,3.93
2018-12-10T16:16:10.698Z,3.77
2018-12-10T16:18:38.890Z,3.60
2018-12-10T16:21:07.078Z,4.00
2018-12-10T16:23:35.327Z,3.87
2018-12-10T16:26:03.511Z,4.67
2018-12-10T16:28:31.757Z,3.47
2018-12-10T16:31:00.078Z,3.00
2018-12-10T16:33:28.246Z,2.87
2018-12-10T16:35:56.725Z,3.27
2018-12-10T16:38:24.961Z,2.33
2018-12-10T16:40:53.121Z,2.47
2018-12-10T16:43:21.409Z,3.03
2018-12-10T16:45:49.774Z,2.87
2018-12-10T16:48:18.003Z,2.97
2018-12-10T16:50:46.163Z,3.27
2018-12-10T16:53:14.352Z,2.60
2018-12-10T16:55:42.615Z,2.40
2018-12-10T16:58:10.872Z,2.67
2018-12-10T17:00:39.108Z,5.43
2018-12-10T17:03:07.299Z,3.03
2018-12-10T17:05:35.522Z,2.60
2018-12-10T17:08:03.772Z,2.90
2018-12-10T17:10:32.020Z,2.20
2018-12-10T17:13:00.287Z,2.50
2018-12-10T17:15:28.492Z,2.70
2018-12-10T17:17:56.701Z,2.47
2018-12-10T17:20:25.058Z,2.37
2018-12-10T17:22:53.284Z,2.43
2018-12-10T17:25:21.445Z,2.20
2018-12-10T17:27:49.732Z,2.00
2018-12-10T17:30:17.939Z,2.83
2018-12-10T17:32:46.256Z,3.17
2018-12-10T17:35:14.462Z,3.30
2018-12-10T17:37:42.706Z,2.40
2018-12-10T17:40:10.913Z,3.40
2018-12-10T17:42:39.094Z,3.83
2018-12-10T17:45:08.450Z,3.97
2018-12-10T17:47:37.065Z,4.23
2018-12-10T17:50:07.453Z,3.73
2018-12-10T17:52:35.736Z,4.37
2018-12-10T17:55:04.107Z,3.93
2018-12-10T17:57:32.257Z,4.97
2018-12-10T18:00:00.496Z,4.10
2018-12-10T18:02:28.777Z,5.20
2018-12-10T18:04:57.054Z,5.20
2018-12-10T18:07:25.268Z,5.60
2018-12-10T18:09:53.417Z,6.60
2018-12-10T18:12:21.661Z,4.83
2018-12-10T18:14:49.863Z,4.23
2018-12-10T18:17:18.057Z,4.60
2018-12-10T18:19:46.200Z,4.73
2018-12-10T18:22:14.452Z,4.40
2018-12-10T18:24:42.622Z,5.00
2018-12-10T18:27:10.833Z,4.50
2018-12-10T18:29:39.110Z,4.80
2018-12-10T18:32:07.448Z,5.03
2018-12-10T18:34:35.723Z,5.53
2018-12-10T18:37:03.988Z,5.50
2018-12-10T18:39:32.237Z,5.97
2018-12-10T18:42:00.421Z,5.17
2018-12-10T18:44:28.625Z,5.10
2018-12-10T18:46:56.867Z,5.47
2018-12-10T18:49:25.072Z,5.57
2018-12-10T18:51:53.252Z,5.17
2018-12-10T18:54:21.502Z,5.93
2018-12-10T18:56:49.690Z,5.87
2018-12-10T18:59:17.892Z,4.83
2018-12-10T19:01:46.057Z,5.53
2018-12-10T19:04:14.382Z,5.00
2018-12-10T19:06:42.570Z,5.23
2018-12-10T19:09:10.900Z,5.33
2018-12-10T19:11:39.249Z,8.67
2018-12-10T19:14:07.481Z,5.87
2018-12-10T19:16:36.083Z,4.43
2018-12-10T19:19:04.431Z,4.53
2018-12-10T19:21:32.657Z,3.93
2018-12-10T19:24:00.896Z,3.97
2018-12-10T19:26:29.072Z,4.30
2018-12-10T19:28:57.286Z,4.00
2018-12-10T19:31:25.464Z,4.07
2018-12-10T19:33:53.772Z,4.20
2018-12-10T19:36:21.962Z,3.10
2018-12-10T19:38:50.299Z,3.17
2018-12-10T19:41:18.844Z,2.63
2018-12-10T19:43:57.905Z,2.90
2018-12-10T19:46:26.271Z,3.33
2018-12-10T19:48:54.655Z,3.27
2018-12-10T19:51:22.883Z,2.60
2018-12-10T19:53:51.169Z,2.80
2018-12-10T19:56:19.434Z,3.30
2018-12-10T19:58:47.791Z,2.83
2018-12-10T20:01:16.150Z,2.67
2018-12-10T20:03:44.418Z,3.50
2018-12-10T20:06:15.349Z,3.07
2018-12-10T20:08:43.760Z,3.97
2018-12-10T20:11:12.012Z,4.00
2018-12-10T20:13:40.222Z,3.90
2018-12-10T20:16:08.554Z,4.53
2018-12-10T20:18:36.714Z,6.20
2018-12-10T20:21:04.981Z,5.87
2018-12-10T20:23:33.184Z,4.87
2018-12-10T20:26:01.507Z,5.10
2018-12-10T20:28:29.801Z,4.50
2018-12-10T20:30:58.146Z,5.10
2018-12-10T20:33:26.297Z,6.00
2018-12-10T20:35:54.657Z,5.87
2018-12-10T20:38:23.017Z,7.00
2018-12-10T20:40:51.255Z,8.70
2018-12-10T20:43:19.404Z,16.37
2018-12-10T20:45:47.581Z,7.50
2018-12-10T20:48:15.935Z,8.37
2018-12-10T20:50:44.202Z,8.77
2018-12-10T20:53:12.510Z,8.30
2018-12-10T20:55:40.869Z,8.67
2018-12-10T20:58:09.413Z,8.33
2018-12-10T21:00:37.652Z,7.73
2018-12-10T21:03:06.009Z,8.47
2018-12-10T21:05:36.305Z,9.67
2018-12-10T21:08:05.537Z,9.07
2018-12-10T21:10:33.768Z,8.93
2018-12-10T21:13:02.011Z,7.70
2018-12-10T21:15:30.375Z,11.27
2018-12-10T21:17:58.696Z,8.00
2018-12-10T21:20:27.040Z,7.47
2018-12-10T21:22:55.318Z,7.23
2018-12-10T21:25:23.548Z,6.87
2018-12-10T21:27:51.764Z,5.80
2018-12-10T21:30:19.977Z,6.57
2018-12-10T21:32:48.247Z,6.83
2018-12-10T21:35:16.528Z,6.47
2018-12-10T21:37:44.741Z,6.37
2018-12-10T21:40:12.973Z,6.43
2018-12-10T21:42:41.362Z,6.80
2018-12-10T21:45:09.618Z,6.97
2018-12-10T21:47:37.831Z,7.47
2018-12-10T21:50:06.162Z,7.00
2018-12-10T21:52:34.464Z,7.40
2018-12-10T21:55:02.681Z,6.23
2018-12-10T21:57:30.880Z,6.67
2018-12-10T21:59:59.339Z,6.90
2018-12-10T22:02:27.615Z,6.63
2018-12-10T22:04:55.808Z,5.90
2018-12-10T22:07:24.077Z,6.10
2018-12-10T22:09:52.277Z,6.37
2018-12-10T22:12:20.470Z,6.03
2018-12-10T22:14:48.674Z,6.23
2018-12-10T22:17:16.926Z,6.53
2018-12-10T22:19:45.118Z,6.10
2018-12-10T22:22:13.363Z,6.90
2018-12-10T22:24:41.594Z,6.07
2018-12-10T22:27:09.772Z,5.67
2018-12-10T22:29:38.055Z,5.70
2018-12-10T22:32:06.376Z,6.80
2018-12-10T22:34:34.617Z,6.50
2018-12-10T22:37:02.882Z,7.10
2018-12-10T22:39:31.043Z,6.80
2018-12-10T22:41:59.187Z,7.13
2018-12-10T22:44:27.347Z,7.27
2018-12-10T22:46:55.550Z,7.77
2018-12-10T22:49:23.730Z,7.27
2018-12-10T22:51:51.984Z,7.20
2018-12-10T22:54:20.176Z,7.77
2018-12-10T22:56:48.377Z,7.10
2018-12-10T22:59:16.565Z,7.07
2018-12-10T23:01:45.103Z,6.97
2018-12-10T23:04:13.527Z,7.33
2018-12-10T23:06:41.769Z,6.60
2018-12-10T23:09:10.032Z,6.50
2018-12-10T23:11:38.311Z,7.77
2018-12-10T23:14:06.725Z,6.63
2018-12-10T23:16:35.105Z,6.30
2018-12-10T23:19:03.397Z,6.93
2018-12-10T23:21:31.754Z,6.80
2018-12-10T23:24:00.059Z,5.37
2018-12-10T23:26:28.357Z,6.13
2018-12-10T23:28:56.683Z,5.83
2018-12-10T23:31:24.951Z,6.27
2018-12-10T23:33:53.234Z,6.93
2018-12-10T23:36:21.474Z,6.33
2018-12-10T23:38:49.724Z,5.53
2018-12-10T23:41:18.022Z,5.30
2018-12-10T23:43:46.266Z,5.20
2018-12-10T23:46:14.512Z,5.17
2018-12-10T23:48:42.776Z,4.60
2018-12-10T23:51:11.079Z,5.73
2018-12-10T23:53:39.336Z,5.77
2018-12-10T23:56:07.704Z,4.47
2018-12-10T23:58:35.954Z,4.30
